createdAt,value
2018-08-30T00:03:00.272Z,24.00
2018-08-30T00:06:04.437Z,22.97
2018-08-30T00:09:08.687Z,21.43
2018-08-30T00:12:12.829Z,22.60
2018-08-30T00:15:16.958Z,19.53
2018-08-30T00:18:21.119Z,18.10
2018-08-30T00:21:25.255Z,24.60
2018-08-30T00:24:29.376Z,22.20
2018-08-30T00:27:33.627Z,22.27
2018-08-30T00:30:37.776Z,25.13
2018-08-30T00:33:41.882Z,24.93
2018-08-30T00:36:46.010Z,24.87
2018-08-30T00:39:50.361Z,26.40
2018-08-30T00:42:54.535Z,25.23
2018-08-30T00:45:58.655Z,27.73
2018-08-30T00:49:02.865Z,23.53
2018-08-30T00:52:06.996Z,25.63
2018-08-30T00:55:11.582Z,28.00
2018-08-30T00:58:15.698Z,21.97
2018-08-30T01:01:19.781Z,49.73
2018-08-30T01:04:23.927Z,23.60
2018-08-30T01:07:28.042Z,30.30
2018-08-30T01:10:32.153Z,22.57
2018-08-30T01:13:36.342Z,28.87
2018-08-30T01:16:40.485Z,26.17
2018-08-30T01:19:44.654Z,25.83
2018-08-30T01:22:49.108Z,26.87
2018-08-30T01:25:53.270Z,27.23
2018-08-30T01:28:57.457Z,31.43
2018-08-30T01:32:02.625Z,26.07
2018-08-30T01:35:06.816Z,28.57
2018-08-30T01:38:10.955Z,25.63
2018-08-30T01:41:15.342Z,24.90
2018-08-30T01:44:19.523Z,23.70
2018-08-30T01:47:23.868Z,23.20
2018-08-30T01:50:28.063Z,28.00
2018-08-30T01:53:32.311Z,24.30
2018-08-30T01:56:36.447Z,26.30
2018-08-30T01:59:40.583Z,25.47
2018-08-30T02:02:44.716Z,26.00
2018-08-30T02:05:49.149Z,28.50
2018-08-30T02:08:53.251Z,25.37
2018-08-30T02:11:57.414Z,25.23
2018-08-30T02:15:01.561Z,23.23
2018-08-30T02:18:05.685Z,23.50
2018-08-30T02:21:09.827Z,26.37
2018-08-30T02:24:13.938Z,23.40
2018-08-30T02:27:18.200Z,22.77
2018-08-30T02:30:22.456Z,25.07
2018-08-30T02:33:26.663Z,18.90
2018-08-30T02:36:30.856Z,20.43
2018-08-30T02:39:34.952Z,21.03
2018-08-30T02:42:39.225Z,21.87
2018-08-30T02:45:43.338Z,21.83
2018-08-30T02:48:47.624Z,23.10
2018-08-30T02:51:51.777Z,19.70
2018-08-30T02:54:55.969Z,22.93
2018-08-30T02:58:00.130Z,23.80
2018-08-30T03:01:04.330Z,22.13
2018-08-30T03:04:08.567Z,19.33
2018-08-30T03:07:12.926Z,21.70
2018-08-30T03:10:17.059Z,22.03
2018-08-30T03:13:21.200Z,21.83
2018-08-30T03:16:25.416Z,25.77
2018-08-30T03:19:35.357Z,24.70
2018-08-30T03:22:40.602Z,25.20
2018-08-30T03:25:44.797Z,24.77
2018-08-30T03:28:48.884Z,27.13
2018-08-30T03:31:53.098Z,30.13
2018-08-30T03:34:57.644Z,36.03
2018-08-30T03:38:01.791Z,33.20
2018-08-30T03:41:06.127Z,35.30
2018-08-30T03:44:10.266Z,43.03
2018-08-30T03:47:14.464Z,43.90
2018-08-30T03:50:18.721Z,45.43
2018-08-30T03:53:22.986Z,50.33
2018-08-30T03:56:27.137Z,45.03
2018-08-30T03:59:31.817Z,48.00
2018-08-30T04:02:36.056Z,46.03
2018-08-30T04:05:40.196Z,55.37
2018-08-30T04:08:44.431Z,52.07
2018-08-30T04:11:48.548Z,53.90
2018-08-30T04:14:52.753Z,61.63
2018-08-30T04:17:56.920Z,59.10
2018-08-30T04:21:01.228Z,52.67
2018-08-30T04:24:06.852Z,56.03
2018-08-30T04:27:11.672Z,60.07
2018-08-30T04:30:15.782Z,57.73
2018-08-30T04:33:19.888Z,61.17
2018-08-30T04:36:24.387Z,57.10
2018-08-30T04:39:28.598Z,49.60
2018-08-30T04:42:32.869Z,51.93
2018-08-30T04:45:37.080Z,55.53
2018-08-30T04:48:41.199Z,52.70
2018-08-30T04:51:45.348Z,49.40
2018-08-30T04:54:49.466Z,53.17
2018-08-30T04:57:53.581Z,52.87
2018-08-30T05:00:58.337Z,49.87
2018-08-30T05:04:02.820Z,46.70
2018-08-30T05:07:06.989Z,55.53
2018-08-30T05:10:11.265Z,47.47
2018-08-30T05:13:15.429Z,47.20
2018-08-30T05:16:19.635Z,40.77
2018-08-30T05:19:23.778Z,44.00
2018-08-30T05:22:27.935Z,39.03
2018-08-30T05:25:32.098Z,34.10
2018-08-30T05:28:36.359Z,24.57
2018-08-30T05:31:40.592Z,16.67
2018-08-30T05:34:45.163Z,13.63
2018-08-30T05:37:49.320Z,11.17
2018-08-30T05:40:53.700Z,6.80
2018-08-30T05:43:57.918Z,7.07
2018-08-30T05:47:02.149Z,6.47
2018-08-30T05:50:07.010Z,4.47
2018-08-30T05:53:11.180Z,4.40
2018-08-30T05:56:15.373Z,3.47
2018-08-30T05:59:19.530Z,5.70
2018-08-30T06:02:23.823Z,2.70
2018-08-30T06:05:28.010Z,3.57
2018-08-30T06:08:32.149Z,2.87
2018-08-30T06:11:36.401Z,3.47
2018-08-30T06:14:40.615Z,2.60
2018-08-30T06:17:44.791Z,2.73
2018-08-30T06:20:48.914Z,4.40
2018-08-30T06:23:53.137Z,2.67
2018-08-30T06:26:57.572Z,3.63
2018-08-30T06:30:01.788Z,1.83
2018-08-30T06:33:05.966Z,2.17
2018-08-30T06:36:10.084Z,2.30
2018-08-30T06:39:14.244Z,1.97
2018-08-30T06:42:18.416Z,2.40
2018-08-30T06:45:22.668Z,3.27
2018-08-30T06:48:26.872Z,7.87
2018-08-30T06:51:30.939Z,2.67
2018-08-30T06:54:35.291Z,2.63
2018-08-30T06:57:39.644Z,4.13
2018-08-30T07:00:43.787Z,2.30
2018-08-30T07:03:47.981Z,4.07
2018-08-30T07:06:52.412Z,1.77
2018-08-30T07:09:56.655Z,1.40
2018-08-30T07:13:00.757Z,1.50
2018-08-30T07:16:04.928Z,1.43
2018-08-30T07:19:09.090Z,1.30
2018-08-30T07:22:13.287Z,1.73
2018-08-30T07:25:17.681Z,1.50
2018-08-30T07:28:21.933Z,3.50
2018-08-30T07:31:26.272Z,2.80
2018-08-30T07:34:31.809Z,2.17
2018-08-30T07:37:36.228Z,2.53
2018-08-30T07:40:40.359Z,1.60
2018-08-30T07:43:44.514Z,2.23
2018-08-30T07:46:48.761Z,2.53
2018-08-30T07:49:52.987Z,2.80
2018-08-30T07:52:57.087Z,2.20
2018-08-30T07:56:01.250Z,2.10
2018-08-30T07:59:06.089Z,2.37
2018-08-30T08:02:10.250Z,3.33
2018-08-30T08:05:14.424Z,1.40
2018-08-30T08:08:18.536Z,1.97
2018-08-30T08:11:22.682Z,3.10
2018-08-30T08:14:26.803Z,1.67
2018-08-30T08:17:31.054Z,1.77
2018-08-30T08:20:35.615Z,3.43
2018-08-30T08:23:39.722Z,2.00
2018-08-30T08:26:43.876Z,2.50
2018-08-30T08:29:47.998Z,2.37
2018-08-30T08:32:52.286Z,2.90
2018-08-30T08:35:56.643Z,2.30
2018-08-30T08:39:00.858Z,3.80
2018-08-30T08:42:05.081Z,2.57
2018-08-30T08:45:09.333Z,2.90
2018-08-30T08:48:13.620Z,2.37
2018-08-30T08:51:17.886Z,3.20
2018-08-30T08:54:21.983Z,3.77
2018-08-30T08:57:26.204Z,3.67
2018-08-30T09:00:30.447Z,4.43
2018-08-30T09:03:34.812Z,4.63
2018-08-30T09:06:38.961Z,5.13
2018-08-30T09:09:43.135Z,5.30
2018-08-30T09:12:47.668Z,4.90
2018-08-30T09:15:51.877Z,5.20
2018-08-30T09:18:56.075Z,6.53
2018-08-30T09:22:00.299Z,7.17
2018-08-30T09:25:04.509Z,7.57
2018-08-30T09:28:09.087Z,6.33
2018-08-30T09:31:13.371Z,5.90
2018-08-30T09:34:17.533Z,12.10
2018-08-30T09:37:22.712Z,11.00
2018-08-30T09:40:26.900Z,9.20
2018-08-30T09:43:31.322Z,9.27
2018-08-30T09:46:35.775Z,7.40
2018-08-30T09:49:40.023Z,11.83
2018-08-30T09:52:44.126Z,9.00
2018-08-30T09:55:48.363Z,9.00
2018-08-30T09:58:52.374Z,11.07
2018-08-30T10:02:01.846Z,9.67
2018-08-30T10:05:06.052Z,12.37
2018-08-30T10:08:10.250Z,11.63
2018-08-30T10:11:14.516Z,12.40
2018-08-30T10:14:18.707Z,12.50
2018-08-30T10:17:22.886Z,12.67
2018-08-30T10:20:27.101Z,13.97
2018-08-30T10:23:31.250Z,12.93
2018-08-30T10:26:35.599Z,14.27
2018-08-30T10:29:39.765Z,14.53
2018-08-30T10:32:43.976Z,17.03
2018-08-30T10:35:48.199Z,14.83
2018-08-30T10:38:52.356Z,16.03
2018-08-30T10:41:56.526Z,16.83
2018-08-30T10:45:00.721Z,14.27
2018-08-30T10:48:04.959Z,15.57
2018-08-30T10:51:09.145Z,15.10
2018-08-30T10:54:13.285Z,13.63
2018-08-30T10:57:17.497Z,13.63
2018-08-30T11:00:21.673Z,15.93
2018-08-30T11:03:25.971Z,14.57
2018-08-30T11:06:30.298Z,15.23
2018-08-30T11:09:35.158Z,15.87
2018-08-30T11:12:39.363Z,14.67
2018-08-30T11:15:43.558Z,14.27
2018-08-30T11:18:47.720Z,13.90
2018-08-30T11:21:51.940Z,14.03
2018-08-30T11:24:56.109Z,13.37
2018-08-30T11:28:00.262Z,10.93
2018-08-30T11:31:04.451Z,15.53
2018-08-30T11:34:08.677Z,14.83
2018-08-30T11:37:12.811Z,13.73
2018-08-30T11:40:16.988Z,13.30
2018-08-30T11:43:21.174Z,12.60
2018-08-30T11:46:25.271Z,12.30
2018-08-30T11:49:29.443Z,12.63
2018-08-30T11:52:33.952Z,12.43
2018-08-30T11:55:38.068Z,12.20
2018-08-30T11:58:43.086Z,14.20
2018-08-30T12:01:47.178Z,10.87
2018-08-30T12:04:52.419Z,11.90
2018-08-30T12:07:58.138Z,13.57
2018-08-30T12:11:02.535Z,15.43
2018-08-30T12:14:06.602Z,13.43
2018-08-30T12:17:10.835Z,13.13
2018-08-30T12:20:15.068Z,12.13
2018-08-30T12:23:19.277Z,14.67
2018-08-30T12:26:23.615Z,12.20
2018-08-30T12:29:27.916Z,10.93
2018-08-30T12:32:32.120Z,9.03
2018-08-30T12:35:36.442Z,10.60
2018-08-30T12:38:40.761Z,8.63
2018-08-30T12:41:44.919Z,10.17
2018-08-30T12:44:49.174Z,8.97
2018-08-30T12:47:53.763Z,6.97
2018-08-30T12:50:57.993Z,7.80
2018-08-30T12:54:02.239Z,8.10
2018-08-30T12:57:07.247Z,8.77
2018-08-30T13:00:11.388Z,7.43
2018-08-30T13:03:15.589Z,9.93
2018-08-30T13:06:19.727Z,9.17
2018-08-30T13:09:25.819Z,7.23
2018-08-30T13:12:30.373Z,7.60
2018-08-30T13:15:34.631Z,8.63
2018-08-30T13:18:38.728Z,8.00
2018-08-30T13:21:43.057Z,8.63
2018-08-30T13:24:47.164Z,9.53
2018-08-30T13:27:51.227Z,9.00
2018-08-30T13:30:55.587Z,7.90
2018-08-30T13:34:00.111Z,8.93
2018-08-30T13:37:04.238Z,8.77
2018-08-30T13:40:08.613Z,7.70
2018-08-30T13:43:12.729Z,7.77
2018-08-30T13:46:16.619Z,9.43
2018-08-30T13:49:20.672Z,7.90
2018-08-30T13:52:24.950Z,8.77
2018-08-30T13:55:29.249Z,12.33
2018-08-30T13:58:33.502Z,7.40
2018-08-30T14:01:37.699Z,9.97
2018-08-30T14:04:41.669Z,8.30
2018-08-30T14:07:45.749Z,9.93
2018-08-30T14:10:50.007Z,9.60
2018-08-30T14:13:54.002Z,9.20
2018-08-30T14:16:58.054Z,8.83
2018-08-30T14:20:02.116Z,9.97
2018-08-30T14:23:06.261Z,9.30
2018-08-30T14:26:11.282Z,7.83
2018-08-30T14:29:15.541Z,7.40
2018-08-30T14:32:19.686Z,6.43
2018-08-30T14:35:24.265Z,6.40
2018-08-30T14:38:28.785Z,6.37
2018-08-30T14:41:33.121Z,7.10
2018-08-30T14:47:55.133Z,7.30
2018-08-30T14:50:59.235Z,7.33
2018-08-30T14:54:03.527Z,5.97
2018-08-30T14:57:08.165Z,6.27
2018-08-30T15:00:12.456Z,6.43
2018-08-30T15:03:16.637Z,7.13
2018-08-30T15:06:20.794Z,8.33
2018-08-30T15:09:24.987Z,5.30
2018-08-30T15:12:29.106Z,5.60
2018-08-30T15:15:33.405Z,8.87
2018-08-30T15:18:37.838Z,6.50
2018-08-30T15:21:41.980Z,5.40
2018-08-30T15:24:46.236Z,5.97
2018-08-30T15:27:50.472Z,6.33
2018-08-30T15:30:54.698Z,6.87
2018-08-30T15:33:59.043Z,6.13
2018-08-30T15:37:03.164Z,6.13
2018-08-30T15:40:07.368Z,4.73
2018-08-30T15:43:11.521Z,6.57
2018-08-30T15:46:15.821Z,4.80
2018-08-30T15:49:20.025Z,4.20
2018-08-30T15:52:24.181Z,6.33
2018-08-30T15:55:28.375Z,5.60
2018-08-30T15:58:32.518Z,7.23
2018-08-30T16:01:36.752Z,5.47
2018-08-30T16:04:40.815Z,4.97
2018-08-30T16:07:44.954Z,7.77
2018-08-30T16:10:50.148Z,5.90
2018-08-30T16:13:54.446Z,4.20
2018-08-30T16:16:58.932Z,4.43
2018-08-30T16:20:03.257Z,3.60
2018-08-30T16:23:28.684Z,5.93
2018-08-30T16:26:32.938Z,5.67
2018-08-30T16:29:37.209Z,6.20
2018-08-30T16:32:41.600Z,3.43
2018-08-30T16:35:46.017Z,8.00
2018-08-30T16:38:50.203Z,5.10
2018-08-30T16:41:54.346Z,5.37
2018-08-30T16:44:59.335Z,5.43
2018-08-30T16:48:03.855Z,4.37
2018-08-30T16:51:08.325Z,5.13
2018-08-30T16:54:12.615Z,5.83
2018-08-30T16:57:16.931Z,4.80
2018-08-30T17:00:21.198Z,4.20
2018-08-30T17:03:25.392Z,5.93
2018-08-30T17:06:29.652Z,4.80
2018-08-30T17:09:33.981Z,6.70
2018-08-30T17:12:38.479Z,5.40
2018-08-30T17:15:42.707Z,6.80
2018-08-30T17:18:49.227Z,5.50
2018-08-30T17:21:53.540Z,5.43
2018-08-30T17:24:57.752Z,5.03
2018-08-30T17:28:01.884Z,5.57
2018-08-30T17:31:06.405Z,3.90
2018-08-30T17:34:10.765Z,5.53
2018-08-30T17:37:15.120Z,6.00
2018-08-30T17:40:19.251Z,4.20
2018-08-30T17:43:23.422Z,5.43
2018-08-30T17:46:27.667Z,6.87
2018-08-30T17:49:31.834Z,4.53
2018-08-30T17:52:36.072Z,5.87
2018-08-30T17:55:40.299Z,4.27
2018-08-30T17:58:44.573Z,6.10
2018-08-30T18:01:48.847Z,6.03
2018-08-30T18:04:53.078Z,5.47
2018-08-30T18:07:57.469Z,7.50
2018-08-30T18:11:01.519Z,7.30
2018-08-30T18:14:06.024Z,5.57
2018-08-30T18:17:10.127Z,6.17
2018-08-30T18:20:14.870Z,4.70
2018-08-30T18:23:19.074Z,6.43
2018-08-30T18:26:23.303Z,6.67
2018-08-30T18:29:27.560Z,9.17
2018-08-30T18:32:31.778Z,4.73
2018-08-30T18:35:36.146Z,5.37
2018-08-30T18:38:40.427Z,5.07
2018-08-30T18:41:44.688Z,6.50
2018-08-30T18:44:48.860Z,4.77
2018-08-30T18:47:53.025Z,4.20
2018-08-30T18:50:57.365Z,7.33
2018-08-30T18:54:01.549Z,7.50
2018-08-30T18:57:06.766Z,6.17
2018-08-30T19:00:11.006Z,5.93
2018-08-30T19:03:15.225Z,7.77
2018-08-30T19:06:19.570Z,7.50
2018-08-30T19:09:23.810Z,7.40
2018-08-30T19:12:28.058Z,8.67
2018-08-30T19:15:37.520Z,5.40
2018-08-30T19:18:47.122Z,5.97
2018-08-30T19:21:51.503Z,6.43
2018-08-30T19:25:00.993Z,5.53
2018-08-30T19:28:05.283Z,4.83
2018-08-30T19:31:09.502Z,5.70
2018-08-30T19:34:13.793Z,6.33
2018-08-30T19:37:17.876Z,8.27
2018-08-30T19:40:27.349Z,7.17
2018-08-30T19:43:31.523Z,7.50
2018-08-30T19:46:35.979Z,7.83
2018-08-30T19:49:40.155Z,5.43
2018-08-30T19:52:44.661Z,7.83
2018-08-30T19:55:48.819Z,6.33
2018-08-30T19:58:53.017Z,8.70
2018-08-30T20:01:57.178Z,7.60
2018-08-30T20:05:01.645Z,9.37
2018-08-30T20:08:06.223Z,7.70
2018-08-30T20:11:10.399Z,5.67
2018-08-30T20:14:14.504Z,6.10
2018-08-30T20:17:19.451Z,5.83
2018-08-30T20:20:23.742Z,6.53
2018-08-30T20:23:27.931Z,7.83
2018-08-30T20:26:32.110Z,6.63
2018-08-30T20:29:37.936Z,6.27
2018-08-30T20:32:42.270Z,6.00
2018-08-30T20:35:46.410Z,7.20
2018-08-30T20:38:51.014Z,8.33
2018-08-30T20:41:55.296Z,6.27
2018-08-30T20:44:59.425Z,9.50
2018-08-30T20:48:03.913Z,10.23
2018-08-30T20:51:08.053Z,6.87
2018-08-30T20:54:12.429Z,6.80
2018-08-30T20:57:16.566Z,6.70
2018-08-30T21:00:20.796Z,8.37
2018-08-30T21:03:24.817Z,6.00
2018-08-30T21:06:28.990Z,4.70
2018-08-30T21:09:33.141Z,6.20
2018-08-30T21:12:38.320Z,10.70
2018-08-30T21:15:42.490Z,5.60
2018-08-30T21:18:46.620Z,6.43
2018-08-30T21:21:50.750Z,5.97
2018-08-30T21:24:54.847Z,9.47
2018-08-30T21:27:59.109Z,9.40
2018-08-30T21:31:03.453Z,9.13
2018-08-30T21:34:07.567Z,6.30
2018-08-30T21:37:11.962Z,12.83
2018-08-30T21:40:16.208Z,7.93
2018-08-30T21:43:20.424Z,7.13
2018-08-30T21:46:24.599Z,6.30
2018-08-30T21:49:28.797Z,6.53
2018-08-30T21:52:32.949Z,6.27
2018-08-30T21:55:37.129Z,5.20
2018-08-30T21:58:41.296Z,6.43
2018-08-30T22:01:45.486Z,4.27
2018-08-30T22:04:49.663Z,7.07
2018-08-30T22:07:53.831Z,3.93
2018-08-30T22:10:58.033Z,4.03
2018-08-30T22:14:02.211Z,6.27
2018-08-30T22:17:07.459Z,5.77
2018-08-30T22:20:11.579Z,7.67
2018-08-30T22:23:15.780Z,7.13
2018-08-30T22:26:19.971Z,10.13
2018-08-30T22:29:24.159Z,10.77
2018-08-30T22:32:28.316Z,8.47
2018-08-30T22:35:32.634Z,13.07
2018-08-30T22:38:36.796Z,10.80
2018-08-30T22:41:41.009Z,5.80
2018-08-30T22:44:45.269Z,5.30
2018-08-30T22:47:49.397Z,8.73
2018-08-30T22:50:53.609Z,6.30
2018-08-30T22:53:57.734Z,7.20
2018-08-30T22:57:01.910Z,7.17
2018-08-30T23:00:06.100Z,8.17
2018-08-30T23:03:10.393Z,9.53
2018-08-30T23:06:14.555Z,6.37
2018-08-30T23:09:18.692Z,7.37
2018-08-30T23:12:22.813Z,4.60
2018-08-30T23:15:26.953Z,4.33
2018-08-30T23:18:31.075Z,9.00
2018-08-30T23:21:35.479Z,4.00
2018-08-30T23:24:39.633Z,6.33
2018-08-30T23:27:43.759Z,5.03
2018-08-30T23:30:47.927Z,3.70
2018-08-30T23:33:52.579Z,4.60
2018-08-30T23:36:56.715Z,4.90
2018-08-30T23:40:00.879Z,8.67
2018-08-30T23:43:05.086Z,5.30
2018-08-30T23:46:09.267Z,6.20
2018-08-30T23:49:13.397Z,6.67
2018-08-30T23:52:17.566Z,7.80
2018-08-30T23:55:21.710Z,4.80
2018-08-30T23:58:37.020Z,3.60
